createdAt,value
2018-07-09T00:01:09.346Z,1.00
2018-07-09T00:03:41.789Z,1.00
2018-07-09T00:06:14.222Z,1.00
2018-07-09T00:08:46.607Z,1.00
2018-07-09T00:11:18.946Z,1.00
2018-07-09T00:13:51.341Z,1.00
2018-07-09T00:16:24.224Z,1.00
2018-07-09T00:18:56.589Z,1.00
2018-07-09T00:21:28.730Z,1.00
2018-07-09T00:24:01.902Z,1.00
2018-07-09T00:26:34.832Z,1.00
2018-07-09T00:29:07.121Z,1.00
2018-07-09T00:31:40.707Z,1.00
2018-07-09T00:34:13.152Z,1.00
2018-07-09T00:36:45.517Z,1.00
2018-07-09T00:39:18.043Z,1.00
2018-07-09T00:41:52.241Z,1.00
2018-07-09T00:44:25.286Z,1.00
2018-07-09T00:46:57.682Z,1.00
2018-07-09T00:49:30.829Z,1.00
2018-07-09T00:52:03.523Z,1.00
2018-07-09T00:54:36.060Z,1.00
2018-07-09T00:57:08.434Z,1.00
2018-07-09T00:59:40.765Z,1.00
2018-07-09T01:02:13.193Z,1.00
2018-07-09T01:04:46.120Z,1.00
2018-07-09T01:07:18.536Z,1.00
2018-07-09T01:09:51.217Z,1.00
2018-07-09T01:12:23.423Z,1.00
2018-07-09T01:14:56.177Z,1.00
2018-07-09T01:17:29.616Z,1.00
2018-07-09T01:20:01.995Z,1.00
2018-07-09T01:22:35.247Z,1.00
2018-07-09T01:25:07.834Z,1.00
2018-07-09T01:27:40.539Z,2.20
2018-07-09T01:30:16.976Z,3.40
2018-07-09T01:32:49.346Z,4.30
2018-07-09T01:35:23.146Z,4.60
2018-07-09T01:37:55.880Z,5.10
2018-07-09T01:40:28.234Z,4.30
2018-07-09T01:43:00.713Z,5.30
2018-07-09T01:45:33.807Z,5.60
2018-07-09T01:48:06.300Z,5.80
2018-07-09T01:50:39.923Z,5.90
2018-07-09T01:53:12.753Z,6.30
2018-07-09T01:55:45.549Z,6.40
2018-07-09T01:58:18.223Z,6.60
2018-07-09T02:00:51.033Z,7.20
2018-07-09T02:03:23.239Z,6.70
2018-07-09T02:05:56.629Z,6.70
2018-07-09T02:08:29.673Z,6.90
2018-07-09T02:11:02.496Z,7.20
2018-07-09T02:13:35.274Z,7.40
2018-07-09T02:16:08.103Z,7.20
2018-07-09T02:18:41.408Z,7.20
2018-07-09T02:21:13.420Z,7.20
2018-07-09T02:23:45.605Z,7.30
2018-07-09T02:26:18.111Z,7.50
2018-07-09T02:28:50.566Z,7.60
2018-07-09T02:31:22.965Z,8.30
2018-07-09T02:33:55.905Z,8.90
2018-07-09T02:36:27.994Z,8.20
2018-07-09T02:39:00.218Z,8.80
2018-07-09T02:41:33.420Z,8.20
2018-07-09T02:44:06.060Z,7.80
2018-07-09T02:46:38.389Z,7.50
2018-07-09T02:49:11.015Z,7.40
2018-07-09T02:51:43.741Z,7.50
2018-07-09T02:54:16.308Z,7.90
2018-07-09T02:56:49.423Z,7.80
2018-07-09T02:59:21.924Z,7.60
2018-07-09T03:01:55.041Z,7.10
2018-07-09T03:04:27.840Z,7.20
2018-07-09T03:07:00.373Z,7.50
2018-07-09T03:09:32.859Z,7.50
2018-07-09T03:12:05.861Z,7.40
2018-07-09T03:14:38.328Z,7.30
2018-07-09T03:17:10.489Z,7.90
2018-07-09T03:19:43.410Z,8.90
2018-07-09T03:22:16.319Z,9.90
2018-07-09T03:24:49.544Z,11.10
2018-07-09T03:27:22.419Z,11.90
2018-07-09T03:29:54.704Z,12.10
2018-07-09T03:32:27.743Z,12.90
2018-07-09T03:35:00.295Z,13.60
2018-07-09T03:37:33.278Z,14.30
2018-07-09T03:40:06.427Z,15.10
2018-07-09T03:42:39.837Z,15.40
2018-07-09T03:45:12.608Z,16.00
2018-07-09T03:47:45.228Z,16.60
2018-07-09T03:50:17.766Z,17.30
2018-07-09T03:52:50.617Z,17.60
2018-07-09T03:55:23.132Z,18.00
2018-07-09T03:57:55.701Z,18.40
2018-07-09T04:00:28.190Z,18.70
2018-07-09T04:03:01.676Z,18.80
2018-07-09T04:05:35.207Z,19.20
2018-07-09T04:08:08.035Z,19.10
2018-07-09T04:10:40.458Z,19.30
2018-07-09T04:13:12.819Z,19.70
2018-07-09T04:15:45.774Z,20.10
2018-07-09T04:18:18.462Z,20.50
2018-07-09T04:20:51.129Z,20.80
2018-07-09T04:23:23.707Z,21.30
2018-07-09T04:25:56.184Z,21.90
2018-07-09T04:28:28.673Z,21.80
2018-07-09T04:31:01.126Z,21.70
2018-07-09T04:33:32.983Z,22.10
2018-07-09T04:36:05.275Z,22.20
2018-07-09T04:38:37.477Z,22.30
2018-07-09T04:41:09.611Z,22.80
2018-07-09T04:43:42.596Z,23.30
2018-07-09T04:46:14.970Z,23.80
2018-07-09T04:48:47.437Z,23.70
2018-07-09T04:51:20.076Z,24.30
2018-07-09T04:53:52.246Z,24.90
2018-07-09T04:56:24.784Z,25.30
2018-07-09T04:58:57.500Z,25.80
2018-07-09T05:01:30.327Z,25.90
2018-07-09T05:04:02.894Z,26.50
2018-07-09T05:06:35.094Z,27.00
2018-07-09T05:09:08.309Z,27.20
2018-07-09T05:11:40.859Z,27.60
2018-07-09T05:16:44.376Z,28.20
2018-07-09T05:21:48.409Z,29.00
2018-07-09T05:24:20.665Z,29.00
2018-07-09T05:26:53.066Z,29.70
2018-07-09T05:29:25.435Z,29.90
2018-07-09T05:31:57.811Z,29.60
2018-07-09T05:34:30.513Z,29.90
2018-07-09T05:37:03.063Z,29.90
2018-07-09T05:39:35.589Z,30.50
2018-07-09T05:42:08.274Z,31.60
2018-07-09T05:44:41.555Z,31.50
2018-07-09T05:47:14.011Z,32.10
2018-07-09T05:49:46.797Z,32.40
2018-07-09T05:52:19.424Z,32.00
2018-07-09T05:54:52.412Z,32.60
2018-07-09T05:57:25.237Z,32.80
2018-07-09T05:59:57.864Z,33.10
2018-07-09T06:02:30.265Z,33.90
2018-07-09T06:05:02.433Z,33.90
2018-07-09T06:07:34.784Z,34.20
2018-07-09T06:10:07.171Z,33.90
2018-07-09T06:12:39.604Z,34.40
2018-07-09T06:15:11.905Z,34.40
2018-07-09T06:17:44.214Z,34.10
2018-07-09T06:20:16.648Z,34.30
2018-07-09T06:22:49.227Z,34.80
2018-07-09T06:25:21.362Z,35.10
2018-07-09T06:27:53.760Z,35.30
2018-07-09T06:30:26.317Z,35.00
2018-07-09T06:32:58.716Z,34.90
2018-07-09T06:35:30.864Z,35.80
2018-07-09T06:38:03.446Z,35.70
2018-07-09T06:40:36.664Z,35.80
2018-07-09T06:43:09.187Z,36.20
2018-07-09T06:45:42.508Z,36.00
2018-07-09T06:48:15.190Z,36.00
2018-07-09T06:50:47.506Z,36.20
2018-07-09T06:53:20.161Z,36.50
2018-07-09T06:55:52.681Z,36.50
2018-07-09T06:58:24.917Z,36.20
2018-07-09T07:00:57.069Z,36.80
2018-07-09T07:03:30.834Z,36.80
2018-07-09T07:06:03.385Z,36.80
2018-07-09T07:08:35.810Z,37.60
2018-07-09T07:11:08.406Z,37.80
2018-07-09T07:13:40.816Z,38.10
2018-07-09T07:16:13.358Z,38.30
2018-07-09T07:18:45.832Z,38.50
2018-07-09T07:21:18.579Z,38.40
2018-07-09T07:23:51.764Z,38.50
2018-07-09T07:26:24.392Z,38.80
2018-07-09T07:28:56.865Z,38.90
2018-07-09T07:31:29.531Z,39.00
2018-07-09T07:34:02.025Z,38.90
2018-07-09T07:36:34.458Z,39.00
2018-07-09T07:39:07.389Z,38.70
2018-07-09T07:41:39.825Z,39.20
2018-07-09T07:44:12.238Z,39.60
2018-07-09T07:46:44.815Z,39.80
2018-07-09T07:49:17.835Z,40.80
2018-07-09T07:51:50.420Z,40.80
2018-07-09T07:54:22.900Z,40.80
2018-07-09T07:56:55.257Z,40.80
2018-07-09T07:59:27.617Z,41.30
2018-07-09T08:02:00.181Z,41.80
2018-07-09T08:04:32.765Z,42.00
2018-07-09T08:13:53.612Z,42.40
2018-07-09T08:16:26.065Z,43.20
2018-07-09T08:18:58.566Z,43.60
2018-07-09T08:21:30.924Z,43.40
2018-07-09T08:24:03.912Z,44.10
2018-07-09T08:26:36.087Z,44.70
2018-07-09T08:29:08.582Z,44.40
2018-07-09T08:31:41.143Z,44.20
2018-07-09T08:34:13.622Z,44.80
2018-07-09T08:36:46.068Z,44.80
2018-07-09T08:39:18.784Z,45.40
2018-07-09T08:41:51.227Z,45.20
2018-07-09T08:44:24.049Z,45.20
2018-07-09T08:46:56.406Z,45.30
2018-07-09T08:49:28.962Z,45.40
2018-07-09T08:52:01.314Z,45.40
2018-07-09T08:54:33.550Z,45.20
2018-07-09T08:57:06.020Z,46.40
2018-07-09T08:59:38.460Z,46.20
2018-07-09T09:02:10.962Z,46.40
2018-07-09T09:04:43.412Z,46.80
2018-07-09T09:07:15.721Z,46.50
2018-07-09T09:09:48.445Z,47.00
2018-07-09T09:12:20.975Z,46.40
2018-07-09T09:14:53.390Z,47.00
2018-07-09T09:17:25.741Z,47.40
2018-07-09T09:19:58.300Z,47.80
2018-07-09T09:22:30.876Z,48.30
2018-07-09T09:25:03.374Z,48.60
2018-07-09T09:30:07.352Z,49.00
2018-07-09T09:32:39.829Z,49.20
2018-07-09T09:35:12.182Z,48.60
2018-07-09T09:37:44.562Z,49.00
2018-07-09T09:40:16.901Z,48.80
2018-07-09T09:42:50.438Z,49.20
2018-07-09T09:45:23.183Z,48.70
2018-07-09T09:47:55.974Z,49.30
2018-07-09T09:50:28.428Z,49.70
2018-07-09T09:53:01.240Z,50.00
2018-07-09T09:55:33.886Z,49.50
2018-07-09T09:58:06.474Z,49.40
2018-07-09T10:00:43.161Z,50.00
2018-07-09T10:03:15.893Z,50.60
2018-07-09T10:05:49.005Z,50.90
2018-07-09T10:08:21.708Z,50.50
2018-07-09T10:10:54.075Z,50.90
2018-07-09T10:13:26.450Z,51.20
2018-07-09T10:15:58.836Z,50.90
2018-07-09T10:18:31.144Z,50.80
2018-07-09T10:21:03.697Z,51.50
2018-07-09T10:23:36.163Z,51.90
2018-07-09T10:26:08.834Z,52.30
2018-07-09T10:28:41.266Z,52.90
2018-07-09T10:31:13.666Z,52.90
2018-07-09T10:33:46.024Z,53.10
2018-07-09T10:36:18.595Z,53.00
2018-07-09T10:38:51.149Z,53.20
2018-07-09T10:41:23.989Z,53.60
2018-07-09T10:43:56.392Z,53.30
2018-07-09T10:46:28.656Z,52.90
2018-07-09T10:49:01.177Z,52.40
2018-07-09T10:51:33.888Z,52.30
2018-07-09T10:54:06.501Z,52.20
2018-07-09T10:56:39.084Z,52.70
2018-07-09T11:01:43.127Z,51.40
2018-07-09T11:04:15.483Z,51.20
2018-07-09T11:06:47.873Z,50.80
2018-07-09T11:09:20.482Z,51.10
2018-07-09T11:11:53.107Z,50.70
2018-07-09T11:14:25.513Z,49.60
2018-07-09T11:16:58.630Z,48.80
2018-07-09T11:19:30.867Z,48.90
2018-07-09T11:22:03.639Z,48.10
2018-07-09T11:24:36.000Z,48.20
2018-07-09T11:29:40.413Z,47.60
2018-07-09T11:32:12.907Z,47.10
2018-07-09T11:34:45.256Z,47.00
2018-07-09T11:37:17.475Z,47.20
2018-07-09T11:39:49.656Z,47.10
2018-07-09T11:42:22.176Z,46.60
2018-07-09T11:44:54.606Z,46.90
2018-07-09T11:47:26.956Z,47.00
2018-07-09T11:49:59.358Z,47.00
2018-07-09T11:52:31.714Z,46.90
2018-07-09T11:55:04.474Z,46.80
2018-07-09T11:57:36.851Z,47.00
2018-07-09T12:00:09.171Z,47.00
2018-07-09T12:02:41.795Z,46.80
2018-07-09T12:05:14.434Z,46.50
2018-07-09T12:07:46.809Z,46.80
2018-07-09T12:10:19.408Z,46.30
2018-07-09T12:12:52.225Z,46.70
2018-07-09T12:15:24.589Z,46.40
2018-07-09T12:17:56.751Z,46.40
2018-07-09T12:20:29.153Z,46.40
2018-07-09T12:23:01.596Z,46.50
2018-07-09T12:25:34.323Z,46.30
2018-07-09T12:28:07.186Z,46.70
2018-07-09T12:30:39.281Z,46.90
2018-07-09T12:33:11.376Z,47.00
2018-07-09T12:35:43.896Z,46.70
2018-07-09T12:38:16.481Z,47.00
2018-07-09T12:40:48.864Z,47.00
2018-07-09T12:43:21.932Z,47.00
2018-07-09T12:45:54.672Z,47.10
2018-07-09T12:48:27.789Z,47.00
2018-07-09T12:51:00.021Z,47.30
2018-07-09T12:53:32.392Z,46.90
2018-07-09T12:56:04.739Z,46.70
2018-07-09T12:58:37.316Z,47.40
2018-07-09T13:01:09.664Z,46.80
2018-07-09T13:03:42.260Z,45.10
2018-07-09T13:06:14.649Z,45.90
2018-07-09T13:08:47.014Z,45.70
2018-07-09T13:11:19.373Z,45.80
2018-07-09T13:13:51.625Z,46.00
2018-07-09T13:16:23.888Z,45.50
2018-07-09T13:18:56.304Z,45.20
2018-07-09T13:21:28.705Z,45.00
2018-07-09T13:24:01.045Z,44.70
2018-07-09T13:26:33.207Z,44.90
2018-07-09T13:29:06.017Z,45.00
2018-07-09T13:31:38.394Z,44.70
2018-07-09T13:34:10.932Z,43.40
2018-07-09T13:36:43.676Z,43.90
2018-07-09T13:39:16.004Z,45.00
2018-07-09T13:41:48.660Z,44.00
2018-07-09T13:44:21.455Z,44.60
2018-07-09T13:46:54.277Z,44.40
2018-07-09T13:49:27.241Z,44.70
2018-07-09T13:52:04.247Z,44.20
2018-07-09T13:54:40.547Z,44.10
2018-07-09T14:00:05.994Z,43.80
2018-07-09T14:05:10.072Z,43.80
2018-07-09T14:07:42.384Z,42.50
2018-07-09T14:10:15.224Z,42.50
2018-07-09T14:12:47.756Z,42.50
2018-07-09T14:15:23.846Z,41.90
2018-07-09T14:23:42.385Z,41.60
2018-07-09T14:26:14.912Z,41.80
2018-07-09T14:28:53.682Z,41.90
2018-07-09T14:48:43.791Z,40.70
2018-07-09T14:51:16.367Z,40.50
2018-07-09T14:53:48.799Z,41.80
2018-07-09T14:56:21.021Z,39.90
2018-07-09T14:58:53.744Z,39.30
2018-07-09T15:01:25.911Z,39.10
2018-07-09T15:03:58.526Z,39.40
2018-07-09T15:06:30.918Z,39.90
2018-07-09T15:09:10.453Z,39.40
2018-07-09T15:11:43.002Z,39.30
2018-07-09T15:14:15.640Z,39.00
2018-07-09T15:16:47.967Z,39.60
2018-07-09T15:19:20.371Z,40.00
2018-07-09T15:21:53.335Z,38.60
2018-07-09T15:24:25.961Z,38.60
2018-07-09T15:26:58.409Z,39.10
2018-07-09T15:29:30.841Z,39.10
2018-07-09T15:32:12.638Z,37.80
2018-07-09T15:34:45.208Z,37.70
2018-07-09T15:37:17.818Z,37.70
2018-07-09T15:39:50.261Z,37.20
2018-07-09T15:44:54.809Z,36.00
2018-07-09T15:49:58.837Z,36.70
2018-07-09T15:52:31.445Z,37.60
2018-07-09T15:55:03.911Z,35.60
2018-07-09T15:57:36.098Z,35.50
2018-07-09T16:00:08.885Z,37.00
2018-07-09T16:05:12.960Z,37.10
2018-07-09T16:07:45.384Z,36.40
2018-07-09T16:10:17.533Z,34.60
2018-07-09T16:12:50.097Z,35.80
2018-07-09T16:15:22.669Z,35.90
2018-07-09T16:17:54.840Z,35.80
2018-07-09T16:20:27.409Z,34.80
2018-07-09T16:23:00.150Z,34.60
2018-07-09T16:25:32.491Z,34.90
2018-07-09T16:28:04.744Z,33.10
2018-07-09T16:30:37.662Z,34.40
2018-07-09T16:33:10.080Z,34.40
2018-07-09T16:35:42.642Z,35.00
2018-07-09T16:38:14.984Z,33.80
2018-07-09T16:40:47.379Z,34.10
2018-07-09T16:43:19.795Z,35.50
2018-07-09T16:45:52.093Z,34.70
2018-07-09T16:48:24.369Z,34.80
2018-07-09T16:50:57.222Z,35.10
2018-07-09T16:53:29.617Z,33.40
2018-07-09T16:56:02.140Z,34.10
2018-07-09T16:58:34.495Z,32.70
2018-07-09T17:01:06.828Z,33.50
2018-07-09T17:03:39.488Z,31.00
2018-07-09T17:06:11.791Z,30.90
2018-07-09T17:08:44.383Z,32.20
2018-07-09T17:11:16.973Z,32.50
2018-07-09T17:13:49.705Z,31.50
2018-07-09T17:16:22.283Z,32.80
2018-07-09T17:18:55.625Z,32.00
2018-07-09T17:21:29.399Z,31.50
2018-07-09T17:24:02.974Z,32.00
2018-07-09T17:26:35.950Z,32.20
2018-07-09T17:29:10.017Z,32.10
2018-07-09T17:31:43.202Z,33.10
2018-07-09T17:34:16.726Z,31.60
2018-07-09T17:36:49.864Z,32.40
2018-07-09T17:39:22.991Z,31.80
2018-07-09T17:41:57.494Z,31.20
2018-07-09T17:44:32.057Z,31.70
2018-07-09T17:47:06.197Z,30.70
2018-07-09T17:49:39.156Z,31.70
2018-07-09T17:52:12.713Z,32.10
2018-07-09T17:54:46.730Z,31.20
2018-07-09T17:57:19.428Z,30.30
2018-07-09T17:59:51.755Z,31.40
2018-07-09T18:02:24.340Z,31.60
2018-07-09T18:04:56.708Z,30.80
2018-07-09T18:07:29.151Z,32.10
2018-07-09T18:10:01.691Z,31.60
2018-07-09T18:12:34.430Z,33.00
2018-07-09T18:15:07.179Z,31.70
2018-07-09T18:17:39.614Z,31.50
2018-07-09T18:20:12.160Z,30.80
2018-07-09T18:22:44.780Z,30.80
2018-07-09T18:25:17.174Z,30.60
2018-07-09T18:30:21.590Z,30.70
2018-07-09T18:32:54.093Z,29.40
2018-07-09T18:35:26.692Z,30.00
2018-07-09T18:37:59.606Z,29.40
2018-07-09T18:40:31.976Z,29.40
2018-07-09T18:43:04.521Z,28.10
2018-07-09T18:45:38.113Z,28.30
2018-07-09T18:48:10.901Z,29.50
2018-07-09T18:50:43.133Z,28.30
2018-07-09T18:53:16.248Z,28.50
2018-07-09T18:55:48.879Z,27.30
2018-07-09T18:58:21.287Z,26.60
2018-07-09T19:00:53.892Z,26.90
2018-07-09T19:03:26.249Z,28.20
2018-07-09T19:07:08.269Z,27.80
2018-07-09T19:09:41.246Z,27.00
2018-07-09T19:12:13.838Z,27.60
2018-07-09T19:14:47.713Z,27.40
2018-07-09T19:18:01.931Z,26.50
2018-07-09T19:20:43.649Z,27.20
2018-07-09T19:23:13.575Z,28.00
2018-07-09T19:25:43.932Z,26.00
2018-07-09T19:28:13.460Z,26.80
2018-07-09T19:30:43.119Z,26.80
2018-07-09T19:33:12.681Z,27.90
2018-07-09T19:35:42.423Z,27.30
2018-07-09T19:38:12.184Z,28.20
2018-07-09T19:40:41.628Z,28.00
2018-07-09T19:43:11.268Z,27.60
2018-07-09T19:45:41.065Z,26.80
2018-07-09T19:48:10.880Z,27.60
2018-07-09T19:50:40.351Z,27.70
2018-07-09T19:53:10.081Z,27.90
2018-07-09T19:55:40.463Z,27.80
2018-07-09T19:58:10.583Z,27.90
2018-07-09T20:00:40.577Z,27.60
2018-07-09T20:03:10.514Z,27.60
2018-07-09T20:05:40.253Z,27.50
2018-07-09T20:08:09.957Z,26.50
2018-07-09T20:10:43.810Z,27.60
2018-07-09T20:13:18.351Z,26.40
2018-07-09T20:15:52.161Z,26.50
2018-07-09T20:18:21.897Z,25.70
2018-07-09T20:20:51.473Z,26.70
2018-07-09T20:23:21.596Z,26.50
2018-07-09T20:25:51.714Z,25.80
2018-07-09T20:28:21.374Z,27.00
2018-07-09T20:30:51.518Z,27.00
2018-07-09T20:33:21.214Z,27.10
2018-07-09T20:35:51.542Z,26.20
2018-07-09T20:38:21.216Z,26.70
2018-07-09T20:40:50.762Z,26.70
2018-07-09T20:43:20.895Z,26.60
2018-07-09T20:45:50.576Z,25.70
2018-07-09T20:48:19.931Z,26.10
2018-07-09T20:50:49.650Z,26.10
2018-07-09T20:53:19.264Z,26.10
2018-07-09T20:55:49.240Z,25.20
2018-07-09T20:58:18.892Z,23.90
2018-07-09T21:00:48.412Z,22.90
2018-07-09T21:03:18.191Z,23.30
2018-07-09T21:05:47.845Z,24.50
2018-07-09T21:08:17.347Z,23.40
2018-07-09T21:10:47.080Z,23.80
2018-07-09T21:13:16.948Z,25.50
2018-07-09T21:15:46.688Z,23.50
2018-07-09T21:18:16.373Z,21.90
2018-07-09T21:20:46.077Z,22.10
2018-07-09T21:23:15.276Z,22.40
2018-07-09T21:25:44.974Z,20.70
2018-07-09T21:28:14.686Z,21.20
2018-07-09T21:30:44.607Z,21.20
2018-07-09T21:33:14.362Z,21.40
2018-07-09T21:35:43.993Z,20.50
2018-07-09T21:38:13.945Z,20.20
2018-07-09T21:40:43.462Z,20.60
2018-07-09T21:43:13.140Z,19.50
2018-07-09T21:45:43.270Z,19.60
2018-07-09T21:48:13.198Z,19.50
2018-07-09T21:50:42.887Z,19.80
2018-07-09T21:53:12.540Z,19.10
2018-07-09T21:55:42.200Z,20.40
2018-07-09T21:58:11.951Z,19.70
2018-07-09T22:00:41.451Z,22.00
2018-07-09T22:03:11.141Z,21.00
2018-07-09T22:05:41.070Z,21.10
2018-07-09T22:08:10.600Z,19.90
2018-07-09T22:10:40.100Z,20.10
2018-07-09T22:13:09.772Z,21.00
2018-07-09T22:15:39.316Z,21.50
2018-07-09T22:18:08.877Z,21.00
2018-07-09T22:20:38.786Z,21.40
2018-07-09T22:23:08.323Z,21.70
2018-07-09T22:25:38.015Z,21.90
2018-07-09T22:28:07.859Z,22.00
2018-07-09T22:30:40.692Z,22.10
2018-07-09T22:33:13.213Z,20.90
2018-07-09T22:35:45.552Z,21.10
2018-07-09T22:38:17.994Z,21.10
2018-07-09T22:40:50.507Z,21.60
2018-07-09T22:43:32.412Z,21.60
2018-07-09T22:46:04.765Z,20.20
2018-07-09T22:48:37.219Z,20.10
2018-07-09T22:51:09.666Z,21.50
2018-07-09T22:53:41.961Z,19.90
2018-07-09T22:56:15.119Z,20.30
2018-07-09T22:58:48.142Z,20.00
2018-07-09T23:01:20.423Z,20.10
2018-07-09T23:03:53.003Z,19.20
2018-07-09T23:06:25.568Z,21.50
2018-07-09T23:10:07.024Z,20.60
2018-07-09T23:13:17.117Z,21.10
2018-07-09T23:15:59.020Z,21.50
2018-07-09T23:19:08.016Z,20.90
2018-07-09T23:22:22.138Z,20.60
2018-07-09T23:24:51.543Z,20.20
2018-07-09T23:27:21.203Z,20.30
2018-07-09T23:29:50.956Z,21.00
2018-07-09T23:32:20.855Z,21.50
2018-07-09T23:34:50.335Z,19.80
2018-07-09T23:37:20.054Z,19.30
2018-07-09T23:39:49.788Z,20.10
2018-07-09T23:42:19.484Z,19.40
2018-07-09T23:44:49.174Z,18.80
2018-07-09T23:47:18.655Z,18.70
2018-07-09T23:49:48.842Z,19.00
2018-07-09T23:54:48.305Z,17.60
2018-07-09T23:58:37.362Z,19.60
